sensor_id;sensor_type;location;lat;lon;timestamp;pressure;altitude;pressure_sealevel;temperature;humidity
62703;BME280;66022;50.448;18.122;2023-03-23T00:00:20;98671.15;;;11.41;76.30
62703;BME280;66022;50.448;18.122;2023-03-23T00:04:24;98670.36;;;11.40;76.05
62703;BME280;66022;50.448;18.122;2023-03-23T00:08:28;98669.53;;;11.35;76.52
62703;BME280;66022;50.448;18.122;2023-03-23T00:12:32;98668.63;;;11.33;76.49
62703;BME280;66022;50.448;18.122;2023-03-23T00:16:36;98667.05;;;11.28;78.88
62703;BME280;66022;50.448;18.122;2023-03-23T00:20:40;98667.00;;;11.27;76.25
62703;BME280;66022;50.448;18.122;2023-03-23T00:24:45;98666.74;;;11.25;76.03
62703;BME280;66022;50.448;18.122;2023-03-23T00:28:51;98665.42;;;11.22;76.65
62703;BME280;66022;50.448;18.122;2023-03-23T00:32:52;98663.67;;;11.19;76.45
62703;BME280;66022;50.448;18.122;2023-03-23T00:36:56;98662.73;;;11.14;78.04
62703;BME280;66022;50.448;18.122;2023-03-23T00:41:00;98662.16;;;11.12;76.75
62703;BME280;66022;50.448;18.122;2023-03-23T00:45:05;98661.14;;;11.09;77.00
62703;BME280;66022;50.448;18.122;2023-03-23T00:49:08;98659.15;;;11.06;77.12
62703;BME280;66022;50.448;18.122;2023-03-23T00:53:12;98657.54;;;11.04;76.95
62703;BME280;66022;50.448;18.122;2023-03-23T00:57:16;98655.59;;;11.02;78.02
62703;BME280;66022;50.448;18.122;2023-03-23T01:01:20;98654.30;;;11.03;76.81
62703;BME280;66022;50.448;18.122;2023-03-23T01:05:24;98653.08;;;11.02;77.09
62703;BME280;66022;50.448;18.122;2023-03-23T01:09:28;98651.53;;;11.00;77.14
62703;BME280;66022;50.448;18.122;2023-03-23T01:21:56;98644.36;;;11.04;76.29
62703;BME280;66022;50.448;18.122;2023-03-23T01:25:55;98641.77;;;11.06;76.68
62703;BME280;66022;50.448;18.122;2023-03-23T01:29:57;98638.56;;;11.08;76.44
62703;BME280;66022;50.448;18.122;2023-03-23T01:34:01;98636.11;;;11.11;75.91
62703;BME280;66022;50.448;18.122;2023-03-23T01:38:05;98634.17;;;11.12;76.66
62703;BME280;66022;50.448;18.122;2023-03-23T01:42:09;98633.11;;;11.13;76.11
62703;BME280;66022;50.448;18.122;2023-03-23T01:46:13;98632.30;;;11.10;78.49
62703;BME280;66022;50.448;18.122;2023-03-23T01:50:17;98631.58;;;11.08;76.91
62703;BME280;66022;50.448;18.122;2023-03-23T01:54:21;98630.91;;;11.06;76.85
62703;BME280;66022;50.448;18.122;2023-03-23T01:58:26;98629.75;;;11.01;77.55
62703;BME280;66022;50.448;18.122;2023-03-23T02:02:29;98629.92;;;10.98;76.92
62703;BME280;66022;50.448;18.122;2023-03-23T02:06:33;98629.66;;;10.93;80.09
62703;BME280;66022;50.448;18.122;2023-03-23T02:10:37;98628.83;;;10.93;77.27
62703;BME280;66022;50.448;18.122;2023-03-23T02:14:41;98626.48;;;10.93;76.86
62703;BME280;66022;50.448;18.122;2023-03-23T02:35:06;98620.95;;;10.80;77.27
62703;BME280;66022;50.448;18.122;2023-03-23T02:43:11;98618.57;;;10.75;77.31
62703;BME280;66022;50.448;18.122;2023-03-23T02:47:20;98617.70;;;10.71;79.28
62703;BME280;66022;50.448;18.122;2023-03-23T02:51:18;98616.05;;;10.68;77.92
62703;BME280;66022;50.448;18.122;2023-03-23T02:55:21;98612.80;;;10.64;78.03
62703;BME280;66022;50.448;18.122;2023-03-23T02:59:25;98609.06;;;10.59;78.68
62703;BME280;66022;50.448;18.122;2023-03-23T03:03:29;98608.51;;;10.54;78.43
62703;BME280;66022;50.448;18.122;2023-03-23T03:07:35;98608.62;;;10.48;79.84
62703;BME280;66022;50.448;18.122;2023-03-23T03:11:37;98608.18;;;10.44;78.76
62703;BME280;66022;50.448;18.122;2023-03-23T03:15:45;98605.98;;;10.39;78.81
62703;BME280;66022;50.448;18.122;2023-03-23T03:19:45;98603.29;;;10.31;79.17
62703;BME280;66022;50.448;18.122;2023-03-23T03:23:51;98602.87;;;10.24;79.04
62703;BME280;66022;50.448;18.122;2023-03-23T03:27:54;98603.27;;;10.17;80.38
62703;BME280;66022;50.448;18.122;2023-03-23T03:31:57;98602.76;;;10.11;79.51
62703;BME280;66022;50.448;18.122;2023-03-23T03:36:02;98601.93;;;10.06;79.31
62703;BME280;66022;50.448;18.122;2023-03-23T03:40:09;98600.84;;;10.03;79.22
62703;BME280;66022;50.448;18.122;2023-03-23T03:44:09;98599.16;;;10.01;78.71
62703;BME280;66022;50.448;18.122;2023-03-23T03:48:13;98598.74;;;9.96;79.67
62703;BME280;66022;50.448;18.122;2023-03-23T03:52:17;98600.84;;;9.93;79.17
62703;BME280;66022;50.448;18.122;2023-03-23T03:56:21;98600.83;;;9.87;82.46
62703;BME280;66022;50.448;18.122;2023-03-23T04:00:25;98600.20;;;9.83;79.26
62703;BME280;66022;50.448;18.122;2023-03-23T04:04:29;98600.08;;;9.79;79.33
62703;BME280;66022;50.448;18.122;2023-03-23T04:08:33;98598.66;;;9.70;80.05
62703;BME280;66022;50.448;18.122;2023-03-23T04:12:37;98598.75;;;9.66;79.61
62703;BME280;66022;50.448;18.122;2023-03-23T04:16:41;98596.72;;;9.58;84.26
62703;BME280;66022;50.448;18.122;2023-03-23T04:20:45;98593.81;;;9.55;80.06
62703;BME280;66022;50.448;18.122;2023-03-23T04:24:49;98592.21;;;9.52;80.11
62703;BME280;66022;50.448;18.122;2023-03-23T04:28:53;98590.48;;;9.48;80.49
62703;BME280;66022;50.448;18.122;2023-03-23T04:32:57;98588.92;;;9.47;79.82
62703;BME280;66022;50.448;18.122;2023-03-23T04:37:01;98588.08;;;9.44;81.93
62703;BME280;66022;50.448;18.122;2023-03-23T04:41:05;98586.39;;;9.44;79.84
62703;BME280;66022;50.448;18.122;2023-03-23T04:45:09;98585.88;;;9.42;79.82
62703;BME280;66022;50.448;18.122;2023-03-23T04:49:13;98586.75;;;9.40;80.36
62703;BME280;66022;50.448;18.122;2023-03-23T04:53:17;98587.11;;;9.40;80.00
62703;BME280;66022;50.448;18.122;2023-03-23T04:57:21;98587.17;;;9.38;82.24
62703;BME280;66022;50.448;18.122;2023-03-23T05:01:25;98586.74;;;9.38;80.46
62703;BME280;66022;50.448;18.122;2023-03-23T05:05:29;98586.74;;;9.38;80.34
62703;BME280;66022;50.448;18.122;2023-03-23T05:09:33;98588.32;;;9.38;80.64
62703;BME280;66022;50.448;18.122;2023-03-23T05:13:37;98589.54;;;9.39;80.23
62703;BME280;66022;50.448;18.122;2023-03-23T05:17:41;98590.94;;;9.40;81.43
62703;BME280;66022;50.448;18.122;2023-03-23T05:21:45;98592.11;;;9.43;80.24
62703;BME280;66022;50.448;18.122;2023-03-23T05:25:52;98593.36;;;9.47;80.21
62703;BME280;66022;50.448;18.122;2023-03-23T05:29:53;98594.57;;;9.51;80.69
62703;BME280;66022;50.448;18.122;2023-03-23T05:33:57;98595.29;;;9.56;80.27
62703;BME280;66022;50.448;18.122;2023-03-23T05:38:01;98596.34;;;9.60;81.57
62703;BME280;66022;50.448;18.122;2023-03-23T05:42:05;98597.21;;;9.65;82.63
62703;BME280;66022;50.448;18.122;2023-03-23T05:46:09;98597.68;;;9.68;83.32
62703;BME280;66022;50.448;18.122;2023-03-23T05:50:13;98598.40;;;9.73;81.43
62703;BME280;66022;50.448;18.122;2023-03-23T05:54:17;98598.93;;;9.78;86.29
62703;BME280;66022;50.448;18.122;2023-03-23T05:58:21;98597.72;;;9.81;81.58
62703;BME280;66022;50.448;18.122;2023-03-23T06:02:25;98596.93;;;9.88;80.17
62703;BME280;66022;50.448;18.122;2023-03-23T06:06:29;98595.96;;;9.92;84.28
62703;BME280;66022;50.448;18.122;2023-03-23T06:10:33;98595.25;;;10.00;80.58
62703;BME280;66022;50.448;18.122;2023-03-23T06:14:37;98593.55;;;10.06;81.02
62703;BME280;66022;50.448;18.122;2023-03-23T06:18:41;98592.19;;;10.12;80.59
62703;BME280;66022;50.448;18.122;2023-03-23T06:22:45;98590.40;;;10.21;80.37
62703;BME280;66022;50.448;18.122;2023-03-23T06:26:49;98589.58;;;10.29;82.14
62703;BME280;66022;50.448;18.122;2023-03-23T06:30:53;98589.08;;;10.39;79.92
62703;BME280;66022;50.448;18.122;2023-03-23T06:34:57;98589.76;;;10.50;78.99
62703;BME280;66022;50.448;18.122;2023-03-23T06:39:01;98590.31;;;10.59;78.46
62703;BME280;66022;50.448;18.122;2023-03-23T06:43:05;98592.57;;;10.71;79.03
62703;BME280;66022;50.448;18.122;2023-03-23T06:47:09;98595.03;;;10.84;79.16
62703;BME280;66022;50.448;18.122;2023-03-23T06:51:17;98598.41;;;11.00;76.89
62703;BME280;66022;50.448;18.122;2023-03-23T06:55:20;98602.17;;;11.18;75.93
62703;BME280;66022;50.448;18.122;2023-03-23T06:59:28;98604.90;;;11.40;75.36
62703;BME280;66022;50.448;18.122;2023-03-23T07:03:27;98605.54;;;11.71;73.41
62703;BME280;66022;50.448;18.122;2023-03-23T07:07:29;98604.75;;;12.08;72.66
62703;BME280;66022;50.448;18.122;2023-03-23T07:11:33;98605.45;;;12.52;70.25
62703;BME280;66022;50.448;18.122;2023-03-23T07:15:38;98606.61;;;12.92;70.08
62703;BME280;66022;50.448;18.122;2023-03-23T07:19:41;98606.29;;;13.29;68.29
62703;BME280;66022;50.448;18.122;2023-03-23T07:23:45;98606.67;;;13.70;67.90
62703;BME280;66022;50.448;18.122;2023-03-23T07:27:49;98607.64;;;14.10;65.79
62703;BME280;66022;50.448;18.122;2023-03-23T07:31:53;98608.26;;;14.55;64.37
62703;BME280;66022;50.448;18.122;2023-03-23T07:35:58;98608.42;;;14.99;64.31
62703;BME280;66022;50.448;18.122;2023-03-23T07:40:01;98606.91;;;15.44;62.01
62703;BME280;66022;50.448;18.122;2023-03-23T07:44:05;98604.06;;;15.89;63.71
62703;BME280;66022;50.448;18.122;2023-03-23T07:48:09;98602.72;;;16.30;62.47
62703;BME280;66022;50.448;18.122;2023-03-23T07:52:13;98601.87;;;16.75;61.56
62703;BME280;66022;50.448;18.122;2023-03-23T07:56:17;98600.83;;;17.13;56.76
62703;BME280;66022;50.448;18.122;2023-03-23T08:00:22;98598.46;;;17.57;59.62
62703;BME280;66022;50.448;18.122;2023-03-23T08:04:25;98595.18;;;17.87;59.00
62703;BME280;66022;50.448;18.122;2023-03-23T08:08:29;98592.68;;;18.00;60.30
62703;BME280;66022;50.448;18.122;2023-03-23T08:12:33;98590.52;;;18.11;59.76
62703;BME280;66022;50.448;18.122;2023-03-23T08:16:37;98588.51;;;18.08;58.42
62703;BME280;66022;50.448;18.122;2023-03-23T08:20:41;98586.63;;;18.07;61.41
62703;BME280;66022;50.448;18.122;2023-03-23T08:24:45;98583.89;;;17.99;61.78
62703;BME280;66022;50.448;18.122;2023-03-23T08:28:49;98582.51;;;17.98;60.99
62703;BME280;66022;50.448;18.122;2023-03-23T08:32:54;98580.18;;;18.11;60.38
62703;BME280;66022;50.448;18.122;2023-03-23T08:36:57;98577.39;;;18.24;57.05
62703;BME280;66022;50.448;18.122;2023-03-23T08:41:03;98576.25;;;18.41;58.15
62703;BME280;66022;50.448;18.122;2023-03-23T08:45:05;98577.89;;;18.61;57.90
62703;BME280;66022;50.448;18.122;2023-03-23T08:49:09;98578.33;;;18.76;57.60
62703;BME280;66022;50.448;18.122;2023-03-23T08:53:13;98578.96;;;18.93;56.23
62703;BME280;66022;50.448;18.122;2023-03-23T08:57:17;98577.95;;;19.08;56.24
62703;BME280;66022;50.448;18.122;2023-03-23T09:01:21;98580.20;;;19.17;56.34
62703;BME280;66022;50.448;18.122;2023-03-23T09:05:26;98581.69;;;19.22;56.63
62703;BME280;66022;50.448;18.122;2023-03-23T09:09:29;98584.27;;;19.19;58.11
62703;BME280;66022;50.448;18.122;2023-03-23T09:13:33;98587.77;;;19.13;58.53
62703;BME280;66022;50.448;18.122;2023-03-23T09:17:38;98589.34;;;19.09;57.57
62703;BME280;66022;50.448;18.122;2023-03-23T09:21:41;98587.92;;;19.17;55.84
62703;BME280;66022;50.448;18.122;2023-03-23T09:25:45;98588.26;;;19.22;55.92
62703;BME280;66022;50.448;18.122;2023-03-23T09:29:49;98588.33;;;19.12;57.44
62703;BME280;66022;50.448;18.122;2023-03-23T09:33:54;98587.87;;;19.08;56.35
62703;BME280;66022;50.448;18.122;2023-03-23T09:37:57;98587.44;;;18.97;57.42
62703;BME280;66022;50.448;18.122;2023-03-23T09:50:10;98586.24;;;18.99;55.66
62703;BME280;66022;50.448;18.122;2023-03-23T10:02:26;98585.21;;;18.66;57.70
62703;BME280;66022;50.448;18.122;2023-03-23T10:06:25;98586.10;;;18.47;56.89
62703;BME280;66022;50.448;18.122;2023-03-23T10:10:36;98585.91;;;18.39;58.52
62703;BME280;66022;50.448;18.122;2023-03-23T10:14:39;98583.87;;;18.29;59.74
62703;BME280;66022;50.448;18.122;2023-03-23T10:18:40;98583.11;;;18.10;60.68
62703;BME280;66022;50.448;18.122;2023-03-23T10:22:44;98584.67;;;17.95;61.56
62703;BME280;66022;50.448;18.122;2023-03-23T10:30:53;98585.16;;;17.63;62.20
62703;BME280;66022;50.448;18.122;2023-03-23T10:34:55;98582.98;;;17.53;62.21
62703;BME280;66022;50.448;18.122;2023-03-23T10:38:58;98580.19;;;17.44;62.13
62703;BME280;66022;50.448;18.122;2023-03-23T10:43:01;98576.32;;;17.40;62.41
62703;BME280;66022;50.448;18.122;2023-03-23T10:47:06;98572.28;;;17.38;60.94
62703;BME280;66022;50.448;18.122;2023-03-23T10:51:10;98570.28;;;17.40;60.14
62703;BME280;66022;50.448;18.122;2023-03-23T10:55:17;98570.37;;;17.43;60.41
62703;BME280;66022;50.448;18.122;2023-03-23T10:59:20;98568.91;;;17.43;60.45
62703;BME280;66022;50.448;18.122;2023-03-23T11:07:27;98566.09;;;17.49;61.43
62703;BME280;66022;50.448;18.122;2023-03-23T11:11:30;98565.19;;;17.52;60.23
62703;BME280;66022;50.448;18.122;2023-03-23T11:15:34;98563.69;;;17.55;60.77
62703;BME280;66022;50.448;18.122;2023-03-23T11:19:37;98562.61;;;17.57;61.09
62703;BME280;66022;50.448;18.122;2023-03-23T11:23:42;98560.72;;;17.62;60.56
62703;BME280;66022;50.448;18.122;2023-03-23T11:27:45;98560.57;;;17.65;59.49
62703;BME280;66022;50.448;18.122;2023-03-23T11:35:53;98556.83;;;17.90;59.45
62703;BME280;66022;50.448;18.122;2023-03-23T11:39:58;98553.67;;;18.09;58.93
62703;BME280;66022;50.448;18.122;2023-03-23T11:44:08;98551.51;;;18.25;59.15
62703;BME280;66022;50.448;18.122;2023-03-23T12:00:20;98548.38;;;18.55;58.99
62703;BME280;66022;50.448;18.122;2023-03-23T12:08:31;98544.47;;;18.57;59.61
62703;BME280;66022;50.448;18.122;2023-03-23T12:16:41;98542.64;;;18.54;55.72
62703;BME280;66022;50.448;18.122;2023-03-23T12:20:45;98543.24;;;18.53;58.48
62703;BME280;66022;50.448;18.122;2023-03-23T12:32:53;98544.39;;;18.50;59.29
62703;BME280;66022;50.448;18.122;2023-03-23T12:41:05;98541.52;;;18.52;59.61
62703;BME280;66022;50.448;18.122;2023-03-23T12:45:07;98539.47;;;18.56;59.61
62703;BME280;66022;50.448;18.122;2023-03-23T12:53:20;98535.94;;;18.65;58.21
62703;BME280;66022;50.448;18.122;2023-03-23T12:57:18;98534.75;;;18.67;58.90
62703;BME280;66022;50.448;18.122;2023-03-23T13:01:22;98533.59;;;18.69;58.62
62703;BME280;66022;50.448;18.122;2023-03-23T13:05:29;98532.47;;;18.70;59.40
62703;BME280;66022;50.448;18.122;2023-03-23T13:25:46;98520.50;;;18.75;59.17
62703;BME280;66022;50.448;18.122;2023-03-23T13:29:45;98519.31;;;18.75;59.49
62703;BME280;66022;50.448;18.122;2023-03-23T13:33:50;98517.61;;;18.75;59.53
62703;BME280;66022;50.448;18.122;2023-03-23T13:37:53;98515.55;;;18.74;58.43
62703;BME280;66022;50.448;18.122;2023-03-23T13:42:05;98513.92;;;18.74;59.82
62703;BME280;66022;50.448;18.122;2023-03-23T13:54:20;98506.71;;;18.70;59.93
62703;BME280;66022;50.448;18.122;2023-03-23T13:58:23;98503.38;;;18.67;59.78
62703;BME280;66022;50.448;18.122;2023-03-23T14:06:21;98494.84;;;18.61;57.00
62703;BME280;66022;50.448;18.122;2023-03-23T14:10:31;98493.13;;;18.58;60.02
62703;BME280;66022;50.448;18.122;2023-03-23T14:14:31;98494.44;;;18.55;60.95
62703;BME280;66022;50.448;18.122;2023-03-23T14:18:37;98494.19;;;18.49;60.66
62703;BME280;66022;50.448;18.122;2023-03-23T14:22:37;98494.18;;;18.45;61.28
62703;BME280;66022;50.448;18.122;2023-03-23T14:26:41;98495.33;;;18.38;59.63
62703;BME280;66022;50.448;18.122;2023-03-23T14:30:45;98496.52;;;18.34;61.96
62703;BME280;66022;50.448;18.122;2023-03-23T14:34:49;98497.31;;;18.30;62.40
62703;BME280;66022;50.448;18.122;2023-03-23T14:42:57;98494.58;;;18.21;62.68
62703;BME280;66022;50.448;18.122;2023-03-23T14:47:02;98494.39;;;18.16;62.33
62703;BME280;66022;50.448;18.122;2023-03-23T14:51:05;98494.98;;;18.14;64.52
62703;BME280;66022;50.448;18.122;2023-03-23T14:55:13;98495.90;;;18.11;63.85
62703;BME280;66022;50.448;18.122;2023-03-23T14:59:13;98497.74;;;18.05;64.29
62703;BME280;66022;50.448;18.122;2023-03-23T15:03:17;98498.13;;;18.01;64.40
62703;BME280;66022;50.448;18.122;2023-03-23T15:07:21;98499.73;;;17.94;65.66
62703;BME280;66022;50.448;18.122;2023-03-23T15:11:29;98500.53;;;17.88;66.26
62703;BME280;66022;50.448;18.122;2023-03-23T15:15:30;98501.68;;;17.82;65.80
62703;BME280;66022;50.448;18.122;2023-03-23T15:19:34;98502.27;;;17.75;65.22
62703;BME280;66022;50.448;18.122;2023-03-23T15:23:40;98501.57;;;17.70;65.94
62703;BME280;66022;50.448;18.122;2023-03-23T15:27:42;98501.22;;;17.63;64.74
62703;BME280;66022;50.448;18.122;2023-03-23T15:31:46;98500.12;;;17.59;64.48
62703;BME280;66022;50.448;18.122;2023-03-23T15:35:50;98499.46;;;17.56;65.08
62703;BME280;66022;50.448;18.122;2023-03-23T15:39:53;98499.67;;;17.53;63.80
62703;BME280;66022;50.448;18.122;2023-03-23T15:43:58;98500.04;;;17.51;63.37
62703;BME280;66022;50.448;18.122;2023-03-23T15:48:05;98500.90;;;17.48;64.02
62703;BME280;66022;50.448;18.122;2023-03-23T15:52:07;98500.12;;;17.46;63.11
62703;BME280;66022;50.448;18.122;2023-03-23T15:56:10;98500.96;;;17.42;62.24
62703;BME280;66022;50.448;18.122;2023-03-23T16:00:13;98502.64;;;17.38;64.00
62703;BME280;66022;50.448;18.122;2023-03-23T16:04:17;98504.37;;;17.36;64.41
62703;BME280;66022;50.448;18.122;2023-03-23T16:08:21;98504.72;;;17.30;65.03
62703;BME280;66022;50.448;18.122;2023-03-23T16:12:25;98507.03;;;17.27;65.10
62703;BME280;66022;50.448;18.122;2023-03-23T16:20:33;98508.25;;;17.17;64.49
62703;BME280;66022;50.448;18.122;2023-03-23T16:24:37;98509.25;;;17.14;65.45
62703;BME280;66022;50.448;18.122;2023-03-23T16:28:42;98509.11;;;17.06;64.50
62703;BME280;66022;50.448;18.122;2023-03-23T16:32:45;98509.92;;;17.04;65.34
62703;BME280;66022;50.448;18.122;2023-03-23T16:36:49;98512.06;;;16.98;66.15
62703;BME280;66022;50.448;18.122;2023-03-23T16:40:53;98512.68;;;16.94;64.73
62703;BME280;66022;50.448;18.122;2023-03-23T16:44:57;98512.62;;;16.91;65.45
62703;BME280;66022;50.448;18.122;2023-03-23T16:49:01;98511.86;;;16.86;65.72
62703;BME280;66022;50.448;18.122;2023-03-23T16:53:06;98513.29;;;16.83;66.64
62703;BME280;66022;50.448;18.122;2023-03-23T16:57:09;98515.42;;;16.78;67.24
62703;BME280;66022;50.448;18.122;2023-03-23T17:01:13;98516.80;;;16.73;68.15
62703;BME280;66022;50.448;18.122;2023-03-23T17:05:21;98517.44;;;16.66;68.15
62703;BME280;66022;50.448;18.122;2023-03-23T17:09:21;98516.28;;;16.58;66.80
62703;BME280;66022;50.448;18.122;2023-03-23T17:13:25;98514.83;;;16.50;66.51
62703;BME280;66022;50.448;18.122;2023-03-23T17:17:29;98514.98;;;16.42;66.99
62703;BME280;66022;50.448;18.122;2023-03-23T17:21:33;98516.03;;;16.36;69.40
62703;BME280;66022;50.448;18.122;2023-03-23T17:25:37;98516.86;;;16.27;69.40
62703;BME280;66022;50.448;18.122;2023-03-23T17:29:41;98519.13;;;16.18;68.14
62703;BME280;66022;50.448;18.122;2023-03-23T17:33:45;98521.22;;;16.13;69.85
62703;BME280;66022;50.448;18.122;2023-03-23T17:37:49;98521.95;;;16.06;69.70
62703;BME280;66022;50.448;18.122;2023-03-23T17:41:53;98522.74;;;16.01;68.10
62703;BME280;66022;50.448;18.122;2023-03-23T17:45:57;98524.98;;;15.96;68.09
62703;BME280;66022;50.448;18.122;2023-03-23T17:50:02;98528.61;;;15.91;66.77
62703;BME280;66022;50.448;18.122;2023-03-23T17:54:08;98530.84;;;15.88;66.00
62703;BME280;66022;50.448;18.122;2023-03-23T17:58:09;98532.36;;;15.83;66.08
62703;BME280;66022;50.448;18.122;2023-03-23T18:02:13;98533.67;;;15.81;66.49
62703;BME280;66022;50.448;18.122;2023-03-23T18:06:17;98534.84;;;15.78;65.38
62703;BME280;66022;50.448;18.122;2023-03-23T18:10:21;98536.70;;;15.77;66.17
62703;BME280;66022;50.448;18.122;2023-03-23T18:14:25;98539.70;;;15.76;66.28
62703;BME280;66022;50.448;18.122;2023-03-23T18:18:29;98543.16;;;15.75;66.68
62703;BME280;66022;50.448;18.122;2023-03-23T18:22:36;98545.53;;;15.76;66.51
62703;BME280;66022;50.448;18.122;2023-03-23T18:26:40;98546.86;;;15.79;73.50
62703;BME280;66022;50.448;18.122;2023-03-23T18:30:41;98549.33;;;15.84;66.72
62703;BME280;66022;50.448;18.122;2023-03-23T18:34:53;98550.89;;;15.90;66.31
62703;BME280;66022;50.448;18.122;2023-03-23T18:38:49;98552.66;;;15.93;65.95
62703;BME280;66022;50.448;18.122;2023-03-23T18:42:53;98556.31;;;15.99;66.03
62703;BME280;66022;50.448;18.122;2023-03-23T18:46:58;98557.69;;;16.00;66.17
62703;BME280;66022;50.448;18.122;2023-03-23T18:51:02;98559.70;;;16.02;66.54
62703;BME280;66022;50.448;18.122;2023-03-23T18:55:06;98562.25;;;16.02;66.89
62703;BME280;66022;50.448;18.122;2023-03-23T18:59:11;98565.92;;;16.00;66.56
62703;BME280;66022;50.448;18.122;2023-03-23T19:03:14;98568.98;;;15.98;66.98
62703;BME280;66022;50.448;18.122;2023-03-23T19:07:18;98572.10;;;15.94;67.55
62703;BME280;66022;50.448;18.122;2023-03-23T19:11:22;98577.64;;;15.91;67.41
62703;BME280;66022;50.448;18.122;2023-03-23T19:15:26;98582.61;;;15.88;68.17
62703;BME280;66022;50.448;18.122;2023-03-23T19:19:30;98587.66;;;15.83;68.04
62703;BME280;66022;50.448;18.122;2023-03-23T19:23:34;98591.00;;;15.80;68.40
62703;BME280;66022;50.448;18.122;2023-03-23T19:27:38;98594.76;;;15.74;68.88
62703;BME280;66022;50.448;18.122;2023-03-23T19:31:42;98598.28;;;15.70;68.50
62703;BME280;66022;50.448;18.122;2023-03-23T19:35:49;98601.48;;;15.65;68.80
62703;BME280;66022;50.448;18.122;2023-03-23T19:39:50;98605.00;;;15.61;69.03
62703;BME280;66022;50.448;18.122;2023-03-23T19:43:54;98608.50;;;15.57;69.15
62703;BME280;66022;50.448;18.122;2023-03-23T19:47:57;98612.32;;;15.53;69.48
62703;BME280;66022;50.448;18.122;2023-03-23T19:52:02;98614.29;;;15.49;69.42
62703;BME280;66022;50.448;18.122;2023-03-23T19:56:09;98616.83;;;15.44;69.94
62703;BME280;66022;50.448;18.122;2023-03-23T20:00:10;98617.60;;;15.41;69.40
62703;BME280;66022;50.448;18.122;2023-03-23T20:04:14;98619.19;;;15.38;69.96
62703;BME280;66022;50.448;18.122;2023-03-23T20:08:18;98622.63;;;15.32;70.63
62703;BME280;66022;50.448;18.122;2023-03-23T20:12:22;98625.83;;;15.29;69.85
62703;BME280;66022;50.448;18.122;2023-03-23T20:16:26;98628.22;;;15.22;71.60
62703;BME280;66022;50.448;18.122;2023-03-23T20:20:30;98627.58;;;15.19;70.14
62703;BME280;66022;50.448;18.122;2023-03-23T20:24:33;98627.89;;;15.17;70.64
62703;BME280;66022;50.448;18.122;2023-03-23T20:28:38;98626.81;;;15.08;71.34
62703;BME280;66022;50.448;18.122;2023-03-23T20:32:42;98625.70;;;15.03;71.22
62703;BME280;66022;50.448;18.122;2023-03-23T20:36:46;98626.93;;;14.95;72.32
62703;BME280;66022;50.448;18.122;2023-03-23T20:40:51;98627.86;;;14.91;71.60
62703;BME280;66022;50.448;18.122;2023-03-23T20:44:54;98629.08;;;14.86;72.11
62703;BME280;66022;50.448;18.122;2023-03-23T20:48:58;98630.47;;;14.82;72.18
62703;BME280;66022;50.448;18.122;2023-03-23T20:53:01;98631.76;;;14.80;71.56
62703;BME280;66022;50.448;18.122;2023-03-23T20:57:05;98633.09;;;14.75;72.82
62703;BME280;66022;50.448;18.122;2023-03-23T21:01:10;98635.22;;;14.73;70.84
62703;BME280;66022;50.448;18.122;2023-03-23T21:05:14;98637.93;;;14.72;70.23
62703;BME280;66022;50.448;18.122;2023-03-23T21:09:18;98640.10;;;14.70;69.86
62703;BME280;66022;50.448;18.122;2023-03-23T21:13:22;98641.92;;;14.71;69.67
62703;BME280;66022;50.448;18.122;2023-03-23T21:17:25;98643.75;;;14.70;69.73
62703;BME280;66022;50.448;18.122;2023-03-23T21:21:30;98645.31;;;14.71;69.26
62703;BME280;66022;50.448;18.122;2023-03-23T21:25:34;98646.22;;;14.71;68.92
62703;BME280;66022;50.448;18.122;2023-03-23T21:29:38;98647.24;;;14.72;68.69
62703;BME280;66022;50.448;18.122;2023-03-23T21:33:42;98647.47;;;14.73;68.54
62703;BME280;66022;50.448;18.122;2023-03-23T21:37:46;98649.56;;;14.74;69.16
62703;BME280;66022;50.448;18.122;2023-03-23T21:41:50;98651.01;;;14.75;68.47
62703;BME280;66022;50.448;18.122;2023-03-23T21:45:55;98651.42;;;14.76;68.60
62703;BME280;66022;50.448;18.122;2023-03-23T21:49:58;98651.53;;;14.75;68.34
62703;BME280;66022;50.448;18.122;2023-03-23T21:54:02;98651.59;;;14.74;68.38
62703;BME280;66022;50.448;18.122;2023-03-23T21:58:06;98652.17;;;14.72;69.54
62703;BME280;66022;50.448;18.122;2023-03-23T22:02:10;98650.92;;;14.72;69.48
62703;BME280;66022;50.448;18.122;2023-03-23T22:06:18;98650.38;;;14.69;70.68
62703;BME280;66022;50.448;18.122;2023-03-23T22:10:18;98649.54;;;14.67;70.02
62703;BME280;66022;50.448;18.122;2023-03-23T22:14:22;98649.64;;;14.65;70.42
62703;BME280;66022;50.448;18.122;2023-03-23T22:18:26;98648.05;;;14.60;70.33
62703;BME280;66022;50.448;18.122;2023-03-23T22:22:30;98645.25;;;14.58;69.88
62703;BME280;66022;50.448;18.122;2023-03-23T22:26:34;98642.11;;;14.53;70.69
62703;BME280;66022;50.448;18.122;2023-03-23T22:30:38;98641.06;;;14.52;70.14
62703;BME280;66022;50.448;18.122;2023-03-23T22:34:42;98641.43;;;14.49;69.91
62703;BME280;66022;50.448;18.122;2023-03-23T22:38:46;98642.99;;;14.45;69.81
62703;BME280;66022;50.448;18.122;2023-03-23T22:42:50;98645.28;;;14.41;70.19
62703;BME280;66022;50.448;18.122;2023-03-23T22:46:54;98646.77;;;14.33;70.92
62703;BME280;66022;50.448;18.122;2023-03-23T22:50:58;98647.57;;;14.27;70.61
62703;BME280;66022;50.448;18.122;2023-03-23T22:55:02;98648.10;;;14.19;71.01
62703;BME280;66022;50.448;18.122;2023-03-23T22:59:06;98649.11;;;14.10;71.53
62703;BME280;66022;50.448;18.122;2023-03-23T23:03:10;98648.66;;;14.03;71.83
62703;BME280;66022;50.448;18.122;2023-03-23T23:07:14;98647.73;;;13.96;71.87
62703;BME280;66022;50.448;18.122;2023-03-23T23:11:19;98646.09;;;13.90;71.21
62703;BME280;66022;50.448;18.122;2023-03-23T23:15:22;98645.34;;;13.85;71.52
62703;BME280;66022;50.448;18.122;2023-03-23T23:19:26;98645.33;;;13.80;71.60
62703;BME280;66022;50.448;18.122;2023-03-23T23:23:30;98644.64;;;13.76;71.91